Terminal Aerodrome Forecast
Issued by NWS Greer, SC

Home | Current Version | Previous Version | Text Only | Print | Product List | Glossary On
Versions: 1 2 3 4 5 6 7 8 9 10 11 12 13 14 15 16 17 18 19 20 21 22 23
000
FTUS42 KGSP 291309 AAA
TAFAVL
TAF AMD
KAVL 291309Z 2913/3012 34003KT P6SM FEW005
      TEMPO 2913/2914 5SM BR BKN005
     FM291400 35005KT P6SM FEW030 BKN250
     FM292300 35005KT P6SM SCT250=

USA.gov is the U.S. government's official web portal to all federal, state and local government web resources and services.